Time;durP1;ratioP1;P1;durP2;ratioP2;P2;SDS_P1;SDS_P2;PMS_P1;PMS_P2;Temp;Humidity;BMP_temperature;BMP_pressure;BME280_temperature;BME280_humidity;BME280_pressure;Samples;Min_cycle;Max_cycle;Signal;HPM_P1;HPM_P2
2022/10/30 00:01:06;;;;;;;;;17.00;17.00;;;;;16.60;100.00;101270.44;4961070;28;51422;-77
2022/10/30 00:03:31;;;;;;;;;20.00;15.67;;;;;16.68;100.00;101289.06;4961661;28;45290;-77
2022/10/30 00:05:56;;;;;;;;;18.00;18.00;;;;;16.62;100.00;101292.56;4960978;28;45380;-77
2022/10/30 00:08:24;;;;;;;;;19.00;19.00;;;;;16.66;100.00;101299.16;4943428;28;46223;-77
2022/10/30 00:10:50;;;;;;;;;21.33;19.67;;;;;16.67;100.00;101295.44;4961459;28;46409;-77
2022/10/30 00:13:16;;;;;;;;;16.00;16.00;;;;;16.58;100.00;101284.06;4961149;28;45835;-77
2022/10/30 00:15:52;;;;;;;;;23.67;21.67;;;;;16.57;100.00;101273.53;4944143;28;45363;-77
2022/10/30 00:18:19;;;;;;;;;20.33;18.00;;;;;16.60;100.00;101273.13;4961066;28;45409;-77
2022/10/30 00:20:44;;;;;;;;;20.00;18.00;;;;;16.58;100.00;101270.66;4943706;28;47205;-78
2022/10/30 00:23:10;;;;;;;;;17.50;17.50;;;;;16.62;100.00;101279.13;4959469;28;45421;-77
2022/10/30 00:25:35;;;;;;;;;14.33;14.00;;;;;16.48;100.00;101254.09;4961205;28;45382;-77
2022/10/30 00:28:03;;;;;;;;;19.00;19.00;;;;;16.53;100.00;101263.19;4961016;28;45504;-78
2022/10/30 00:30:28;;;;;;;;;20.00;18.00;;;;;16.57;100.00;101260.94;4961049;28;45310;-78
2022/10/30 00:32:53;;;;;;;;;21.00;20.33;;;;;16.49;100.00;101261.16;4960887;28;48525;-78
2022/10/30 00:35:19;;;;;;;;;19.00;17.00;;;;;16.47;100.00;101263.19;4960728;28;45195;-77
2022/10/30 00:37:44;;;;;;;;;21.67;20.00;;;;;16.48;100.00;101280.94;4943032;28;52472;-77
2022/10/30 00:40:16;;;;;;;;;20.33;20.00;;;;;16.46;100.00;101283.00;4943165;28;55253;-77
2022/10/30 00:42:42;;;;;;;;;23.33;21.33;;;;;16.44;100.00;101274.31;4960934;28;45345;-77
2022/10/30 00:45:11;;;;;;;;;24.00;23.00;;;;;16.43;100.00;101276.16;4943292;28;45442;-77
2022/10/30 00:47:42;;;;;;;;;21.67;20.00;;;;;16.40;100.00;101269.34;4960467;28;45460;-77
2022/10/30 00:50:12;;;;;;;;;23.67;18.67;;;;;16.39;100.00;101275.75;4943000;28;47574;-77
2022/10/30 00:52:53;;;;;;;;;23.67;23.33;;;;;16.32;100.00;101258.81;4960115;28;45367;-77
2022/10/30 00:55:24;;;;;;;;;22.33;22.33;;;;;16.36;100.00;101280.69;4943316;28;45395;-77
2022/10/30 00:57:52;;;;;;;;;17.67;17.67;;;;;16.33;100.00;101275.72;4942900;28;45954;-77
2022/10/30 01:00:20;;;;;;;;;22.67;22.00;;;;;16.30;100.00;101273.44;4959235;28;46056;-77
2022/10/30 01:02:46;;;;;;;;;24.67;24.00;;;;;16.27;100.00;101278.19;4960329;28;45270;-78
2022/10/30 01:05:17;;;;;;;;;22.67;19.67;;;;;16.12;100.00;101258.72;4957601;28;45358;-77
2022/10/30 01:07:43;;;;;;;;;23.67;21.33;;;;;16.19;100.00;101283.69;4942706;28;47197;-78
2022/10/30 01:10:10;;;;;;;;;22.33;21.00;;;;;16.12;100.00;101267.59;4960017;28;45338;-78
2022/10/30 01:12:36;;;;;;;;;21.67;20.67;;;;;16.16;100.00;101284.09;4962319;28;45287;-77
2022/10/30 01:15:02;;;;;;;;;21.67;18.33;;;;;16.10;100.00;101266.13;4960354;28;45689;-77
2022/10/30 01:17:55;;;;;;;;;20.33;20.00;;;;;16.05;100.00;101265.91;4959461;28;45343;-77
2022/10/30 01:20:56;;;;;;;;;24.67;21.33;;;;;15.97;100.00;101261.50;4960164;28;45433;-78
2022/10/30 01:23:39;;;;;;;;;20.67;19.33;;;;;15.94;100.00;101284.16;4907786;28;45525;-77
2022/10/30 01:26:38;;;;;;;;;20.67;18.67;;;;;15.92;100.00;101280.84;4958922;28;45395;-78
2022/10/30 01:29:25;;;;;;;;;23.33;21.67;;;;;15.87;100.00;101275.25;4959904;28;45354;-77
2022/10/30 01:32:02;;;;;;;;;19.33;18.33;;;;;15.91;100.00;101284.53;4958557;28;47265;-77
2022/10/30 01:34:54;;;;;;;;;20.67;20.00;;;;;15.90;100.00;101285.59;4960164;28;45356;-78
2022/10/30 01:37:31;;;;;;;;;18.00;16.33;;;;;15.83;100.00;101280.16;4959728;28;45499;-77
2022/10/30 01:40:12;;;;;;;;;21.00;18.67;;;;;15.86;100.00;101281.66;4942394;28;45449;-78
2022/10/30 01:42:42;;;;;;;;;20.33;17.33;;;;;15.85;100.00;101278.13;4959952;28;45600;-78
2022/10/30 01:45:24;;;;;;;;;24.67;22.33;;;;;15.83;100.00;101276.69;4960056;28;45246;-78
2022/10/30 01:48:12;;;;;;;;;24.00;22.33;;;;;15.76;100.00;101265.91;4960178;28;45477;-78
2022/10/30 01:50:55;;;;;;;;;17.33;17.00;;;;;15.75;100.00;101267.75;4949074;28;45327;-78
2022/10/30 01:53:30;;;;;;;;;24.67;19.67;;;;;15.73;100.00;101268.97;4958078;28;47157;-77
2022/10/30 01:56:35;;;;;;;;;18.00;17.50;;;;;15.72;100.00;101273.50;4958391;28;45264;-77
2022/10/30 01:59:20;;;;;;;;;21.67;20.67;;;;;15.69;100.00;101268.53;4959859;28;45458;-77
2022/10/30 02:01:46;;;;;;;;;18.00;17.33;;;;;15.66;100.00;101266.25;4959974;28;45442;-77
2022/10/30 02:04:12;;;;;;;;;16.33;15.00;;;;;15.67;100.00;101275.94;4959522;28;45393;-78
2022/10/30 02:06:39;;;;;;;;;17.00;17.00;;;;;15.61;100.00;101266.84;4959711;28;45808;-77
2022/10/30 02:09:04;;;;;;;;;16.33;15.33;;;;;15.66;100.00;101276.97;4959716;28;45349;-78
2022/10/30 02:11:32;;;;;;;;;19.67;18.00;;;;;15.61;100.00;101266.84;4959587;28;45389;-78
2022/10/30 02:13:59;;;;;;;;;17.00;16.00;;;;;15.62;100.00;101262.28;4959662;28;45368;-78
2022/10/30 02:16:25;;;;;;;;;19.67;18.33;;;;;15.53;100.00;101259.78;4959544;28;45398;-78
2022/10/30 02:18:50;;;;;;;;;18.00;16.33;;;;;15.50;100.00;101254.78;4942200;28;45452;-77
2022/10/30 02:21:15;;;;;;;;;18.67;16.67;;;;;15.52;100.00;101252.75;4959498;28;45522;-78
2022/10/30 02:23:41;;;;;;;;;15.67;15.00;;;;;15.49;100.00;101241.59;4959226;28;46202;-77
2022/10/30 02:26:06;;;;;;;;;19.33;15.00;;;;;15.55;100.00;101251.53;4959586;28;45156;-78
2022/10/30 02:28:31;;;;;;;;;15.00;14.00;;;;;15.48;100.00;101242.63;4943285;28;45308;-78
2022/10/30 02:30:57;;;;;;;;;18.67;18.67;;;;;15.53;100.00;101250.91;4962806;28;45464;-78
2022/10/30 02:33:25;;;;;;;;;15.67;15.67;;;;;15.53;100.00;101253.56;4945445;28;48515;-78
2022/10/30 02:35:50;;;;;;;;;21.00;18.67;;;;;15.50;100.00;101248.59;4962519;28;45498;-77
2022/10/30 02:38:16;;;;;;;;;18.00;17.00;;;;;15.47;100.00;101244.47;4962579;28;45304;-76
2022/10/30 02:40:41;;;;;;;;;20.67;17.00;;;;;15.56;100.00;101252.38;4962564;28;45370;-77
2022/10/30 02:43:07;;;;;;;;;18.00;15.67;;;;;15.43;100.00;101232.50;4945276;28;47306;-76
2022/10/30 02:45:32;;;;;;;;;16.00;16.00;;;;;15.53;100.00;101246.38;4962543;28;45453;-77
2022/10/30 02:47:59;;;;;;;;;15.00;14.00;;;;;15.51;100.00;101245.72;4962805;28;45469;-77
2022/10/30 02:50:25;;;;;;;;;16.00;14.33;;;;;15.43;100.00;101231.66;4961158;28;46211;-76
2022/10/30 02:52:51;;;;;;;;;19.33;15.33;;;;;15.45;100.00;101234.97;4944718;28;48062;-77
2022/10/30 02:55:16;;;;;;;;;13.00;13.00;;;;;15.50;100.00;101244.09;4962373;28;45365;-77
2022/10/30 02:57:42;;;;;;;;;16.67;16.00;;;;;15.47;100.00;101239.13;4962470;28;45217;-77
2022/10/30 03:00:08;;;;;;;;;16.33;16.33;;;;;15.42;100.00;101236.22;4961099;28;47347;-76
2022/10/30 03:02:33;;;;;;;;;17.00;16.33;;;;;15.48;100.00;101248.00;4949143;28;47188;-77
2022/10/30 03:04:58;;;;;;;;;17.33;15.33;;;;;15.46;100.00;101244.66;4962230;28;45358;-76
2022/10/30 03:07:24;;;;;;;;;18.00;15.00;;;;;15.48;100.00;101243.44;4962244;28;45568;-77
2022/10/30 03:09:50;;;;;;;;;18.67;15.67;;;;;15.38;100.00;101232.25;4962079;28;45477;-77
2022/10/30 03:12:16;;;;;;;;;19.33;17.33;;;;;15.47;100.00;101247.16;4963862;28;45388;-77
2022/10/30 03:14:41;;;;;;;;;18.33;15.33;;;;;15.43;100.00;101235.19;4962094;28;45417;-77
2022/10/30 03:17:07;;;;;;;;;18.00;17.33;;;;;15.41;100.00;101234.53;4944776;28;45338;-77
2022/10/30 03:19:32;;;;;;;;;17.00;16.33;;;;;15.43;100.00;101239.69;4952489;28;46006;-78
2022/10/30 03:21:58;;;;;;;;;18.00;17.00;;;;;15.38;100.00;101232.25;4961765;28;45446;-78
2022/10/30 03:24:23;;;;;;;;;16.67;16.67;;;;;15.39;100.00;101232.03;4962056;28;45286;-77
2022/10/30 03:26:48;;;;;;;;;15.33;15.33;;;;;15.36;100.00;101223.59;4962348;28;45355;-78
2022/10/30 03:29:13;;;;;;;;;18.33;18.00;;;;;15.43;100.00;101237.84;4962147;28;45433;-78
2022/10/30 03:31:39;;;;;;;;;17.67;17.33;;;;;15.36;100.00;101227.06;4962053;28;47818;-77
2022/10/30 03:34:04;;;;;;;;;21.67;18.00;;;;;15.43;100.00;101237.84;4960454;28;45405;-77
2022/10/30 03:36:29;;;;;;;;;19.00;18.00;;;;;15.40;100.00;101232.88;4960509;28;45809;-77
2022/10/30 03:38:55;;;;;;;;;17.00;15.67;;;;;15.29;100.00;101215.50;4961610;28;45544;-77
2022/10/30 03:41:21;;;;;;;;;21.00;16.00;;;;;15.36;100.00;101231.63;4959679;28;48008;-77
2022/10/30 03:43:46;;;;;;;;;19.00;17.00;;;;;15.33;100.00;101227.50;4961627;28;45289;-77
2022/10/30 03:46:11;;;;;;;;;19.00;15.33;;;;;15.30;100.00;101219.00;4944677;28;45308;-77
2022/10/30 03:48:36;;;;;;;;;18.00;16.33;;;;;15.34;100.00;101222.94;4944070;28;46167;-78
2022/10/30 03:51:02;;;;;;;;;16.00;14.33;;;;;15.31;100.00;101216.13;4943909;28;51604;-77
2022/10/30 03:53:28;;;;;;;;;9.33;9.33;;;;;15.31;100.00;101215.28;4961559;28;45356;-77
2022/10/30 03:56:02;;;;;;;;;18.33;17.33;;;;;15.29;100.00;101209.31;4961506;28;45240;-78
2022/10/30 03:58:28;;;;;;;;;15.00;14.67;;;;;15.13;100.00;101185.31;4961579;28;45349;-77
2022/10/30 04:00:53;;;;;;;;;16.00;16.00;;;;;15.07;100.00;101180.72;4960980;28;45318;-77
2022/10/30 04:03:19;;;;;;;;;21.00;19.67;;;;;15.19;100.00;101198.94;4961501;28;45226;-77
2022/10/30 04:05:44;;;;;;;;;16.67;16.67;;;;;15.15;100.00;101195.84;4947848;28;45374;-78
2022/10/30 04:08:12;;;;;;;;;16.33;15.00;;;;;15.10;100.00;101187.53;4943278;28;46097;-77
2022/10/30 04:10:42;;;;;;;;;16.00;16.00;;;;;15.14;100.00;101224.44;4961390;28;45422;-77
2022/10/30 04:13:09;;;;;;;;;15.00;15.00;;;;;15.09;100.00;101210.78;4961087;28;45343;-78
2022/10/30 04:15:35;;;;;;;;;18.00;18.00;;;;;15.10;100.00;101204.44;4961543;28;45310;-77
2022/10/30 04:18:02;;;;;;;;;16.00;16.00;;;;;15.12;100.00;101204.25;4961066;28;45334;-77
2022/10/30 04:20:27;;;;;;;;;17.33;17.33;;;;;15.11;100.00;101197.22;4959509;28;47199;-78
2022/10/30 04:23:00;;;;;;;;;16.00;16.00;;;;;15.05;100.00;101179.28;4960891;28;45337;-77
2022/10/30 04:25:26;;;;;;;;;17.00;15.00;;;;;15.02;100.00;101183.97;4961232;28;45314;-78
2022/10/30 04:27:52;;;;;;;;;16.67;15.00;;;;;14.98;100.00;101182.72;4960958;28;45326;-78
2022/10/30 04:30:20;;;;;;;;;17.67;16.67;;;;;15.00;100.00;101196.72;4960689;28;46060;-77
2022/10/30 04:32:53;;;;;;;;;14.33;14.33;;;;;14.89;100.00;101178.53;4961063;28;45286;-77
2022/10/30 04:35:20;;;;;;;;;15.00;15.00;;;;;14.95;100.00;101190.28;4960674;28;45370;-77
2022/10/30 04:37:57;;;;;;;;;17.00;16.67;;;;;14.97;100.00;101199.78;4943112;28;47429;-78
2022/10/30 04:40:24;;;;;;;;;15.00;14.67;;;;;14.99;100.00;101194.25;4960577;28;46144;-78
2022/10/30 04:42:50;;;;;;;;;14.33;12.33;;;;;14.98;100.00;101187.25;4960794;28;45411;-77
2022/10/30 04:45:16;;;;;;;;;18.67;17.33;;;;;14.93;100.00;101178.97;4961004;28;45247;-78
2022/10/30 04:47:41;;;;;;;;;17.67;17.67;;;;;14.93;100.00;101179.78;4960524;28;45340;-78
2022/10/30 04:50:07;;;;;;;;;16.00;15.00;;;;;14.96;100.00;101174.03;4950583;28;47605;-77
2022/10/30 04:52:33;;;;;;;;;17.33;15.33;;;;;14.90;100.00;101164.09;4960215;28;45267;-78
2022/10/30 04:54:58;;;;;;;;;14.00;14.00;;;;;14.85;100.00;101162.00;4960578;28;46395;-77
2022/10/30 04:57:23;;;;;;;;;16.00;14.00;;;;;14.83;100.00;101166.75;4960458;28;45559;-78
2022/10/30 04:59:49;;;;;;;;;15.67;15.67;;;;;14.84;100.00;101179.09;4960667;28;45461;-77
2022/10/30 05:02:14;;;;;;;;;17.00;16.00;;;;;14.84;100.00;101178.25;4960539;28;45348;-77
2022/10/30 05:04:39;;;;;;;;;14.00;13.00;;;;;14.77;100.00;101164.78;4960576;28;45692;-77
2022/10/30 05:07:06;;;;;;;;;14.67;14.33;;;;;14.70;100.00;101154.03;4960132;28;45161;-77
2022/10/30 05:09:31;;;;;;;;;15.00;15.00;;;;;14.72;100.00;101156.50;4960408;28;45160;-77
2022/10/30 05:11:57;;;;;;;;;19.00;16.00;;;;;14.72;100.00;101148.47;4942784;28;45457;-78
2022/10/30 05:14:22;;;;;;;;;14.00;13.33;;;;;14.74;100.00;101144.63;4943270;28;45468;-77
2022/10/30 05:16:47;;;;;;;;;15.33;15.33;;;;;14.75;100.00;101150.78;4960080;28;45638;-77
2022/10/30 05:19:13;;;;;;;;;15.00;14.00;;;;;14.75;100.00;101166.81;4960353;28;45582;-77
2022/10/30 05:21:38;;;;;;;;;15.33;13.67;;;;;14.68;100.00;101161.44;4960115;28;46036;-78
2022/10/30 05:24:03;;;;;;;;;18.00;16.00;;;;;14.70;100.00;101161.25;4960349;28;45323;-77
2022/10/30 05:26:29;;;;;;;;;15.00;12.33;;;;;14.68;100.00;101166.78;4959010;28;46071;-77
2022/10/30 05:28:54;;;;;;;;;15.00;13.33;;;;;14.70;100.00;101171.94;4959913;28;46221;-77
2022/10/30 05:31:19;;;;;;;;;14.00;13.00;;;;;14.68;100.00;101177.47;4960295;28;45541;-78
2022/10/30 05:33:45;;;;;;;;;18.67;14.67;;;;;14.63;100.00;101166.50;4960401;28;45322;-78
2022/10/30 05:36:10;;;;;;;;;14.00;14.00;;;;;14.59;100.00;101173.25;4959729;28;51988;-77
2022/10/30 05:38:35;;;;;;;;;14.33;14.33;;;;;14.58;100.00;101177.78;4959226;28;49961;-78
2022/10/30 05:41:00;;;;;;;;;18.00;17.67;;;;;14.58;100.00;101183.13;4961607;28;45389;-78
2022/10/30 05:43:26;;;;;;;;;15.67;15.67;;;;;14.57;100.00;101172.63;4960143;28;45334;-77
2022/10/30 05:45:51;;;;;;;;;20.00;18.00;;;;;14.56;100.00;101165.63;4959911;28;45316;-77
2022/10/30 05:48:17;;;;;;;;;16.33;14.33;;;;;14.59;100.00;101160.72;4959896;28;46480;-78
2022/10/30 05:50:42;;;;;;;;;15.00;14.67;;;;;14.52;100.00;101152.63;4942557;28;46231;-77
2022/10/30 05:53:08;;;;;;;;;17.33;16.67;;;;;14.52;100.00;101152.63;4959740;28;45297;-77
2022/10/30 05:55:34;;;;;;;;;19.00;16.67;;;;;14.47;100.00;101140.84;4960026;28;45632;-77
2022/10/30 05:58:01;;;;;;;;;13.33;12.00;;;;;14.51;100.00;101145.63;4959657;28;45328;-77
2022/10/30 06:00:28;;;;;;;;;19.67;17.67;;;;;14.51;100.00;101155.50;4959698;28;45535;-77
2022/10/30 06:03:01;;;;;;;;;13.00;13.00;;;;;14.47;100.00;101154.22;4962865;28;45366;-77
2022/10/30 06:05:30;;;;;;;;;17.33;16.00;;;;;14.53;100.00;101172.19;4945770;28;46111;-76
2022/10/30 06:07:55;;;;;;;;;15.00;14.33;;;;;14.52;100.00;101173.22;4965630;28;45362;-79
2022/10/30 06:10:24;;;;;;;;;18.33;16.00;;;;;14.52;100.00;101178.56;4963118;28;45346;-78
2022/10/30 06:12:53;;;;;;;;;14.00;13.00;;;;;14.51;100.00;101182.22;4945759;28;45334;-80
2022/10/30 06:15:19;;;;;;;;;15.00;14.67;;;;;14.48;100.00;101179.94;4962906;28;45510;-80
2022/10/30 06:17:44;;;;;;;;;18.00;17.33;;;;;14.42;100.00;101162.00;4963376;28;45350;-77
2022/10/30 06:20:10;;;;;;;;;15.33;15.00;;;;;14.49;100.00;101185.09;4962739;28;47764;-78
2022/10/30 06:22:35;;;;;;;;;17.00;16.00;;;;;14.49;100.00;101185.09;4962987;28;45362;-77
2022/10/30 06:25:00;;;;;;;;;15.00;15.00;;;;;14.48;100.00;101193.31;4962714;28;45322;-77
2022/10/30 06:27:26;;;;;;;;;16.00;16.00;;;;;14.45;100.00;101193.69;4945341;28;47042;-77
2022/10/30 06:29:53;;;;;;;;;14.67;14.00;;;;;14.45;100.00;101188.34;4962935;28;45539;-77
2022/10/30 06:32:19;;;;;;;;;17.00;16.33;;;;;14.50;100.00;101199.31;4962984;28;45328;-77
2022/10/30 06:34:44;;;;;;;;;18.00;15.00;;;;;14.51;100.00;101193.78;4967384;28;45366;-78
2022/10/30 06:37:10;;;;;;;;;16.67;15.67;;;;;14.49;100.00;101195.78;4946223;28;47074;-79
2022/10/30 06:39:35;;;;;;;;;14.00;14.00;;;;;14.49;100.00;101190.44;4945777;28;45730;-78
2022/10/30 06:42:01;;;;;;;;;16.00;16.00;;;;;14.49;100.00;101185.09;4962972;28;45873;-77
2022/10/30 06:44:26;;;;;;;;;15.67;15.00;;;;;14.44;100.00;101174.16;4961337;28;45999;-77
2022/10/30 06:46:52;;;;;;;;;12.33;11.00;;;;;14.49;100.00;101189.63;4962580;28;46316;-77
2022/10/30 06:49:18;;;;;;;;;19.67;16.00;;;;;14.52;100.00;101200.75;4962323;28;45457;-77
2022/10/30 06:51:43;;;;;;;;;16.00;16.00;;;;;14.45;100.00;101191.84;4962245;28;45227;-76
2022/10/30 06:54:08;;;;;;;;;16.67;15.33;;;;;14.48;100.00;101188.78;4962814;28;45310;-77
2022/10/30 06:56:34;;;;;;;;;16.67;16.33;;;;;14.47;100.00;101188.97;4962208;28;55127;-77
2022/10/30 06:58:59;;;;;;;;;16.67;14.33;;;;;14.46;100.00;101173.97;4960942;28;50561;-77
2022/10/30 07:01:24;;;;;;;;;22.00;22.00;;;;;14.52;100.00;101178.56;4963006;28;45521;-79
2022/10/30 07:03:49;;;;;;;;;22.00;17.67;;;;;14.56;100.00;101173.66;4963946;28;45432;-77
2022/10/30 07:06:15;;;;;;;;;23.67;21.33;;;;;14.60;100.00;101182.94;4962373;28;48958;-77
2022/10/30 07:08:40;;;;;;;;;16.00;16.00;;;;;14.62;100.00;101186.25;4961928;28;45382;-77
2022/10/30 07:11:05;;;;;;;;;18.00;18.00;;;;;14.65;100.00;101188.56;4962371;28;45375;-77
2022/10/30 07:13:31;;;;;;;;;15.00;14.00;;;;;14.69;100.00;101189.81;4962052;28;45318;-76
2022/10/30 07:15:58;;;;;;;;;18.33;16.33;;;;;14.72;100.00;101194.78;4960933;28;49568;-77
2022/10/30 07:18:23;;;;;;;;;18.00;17.00;;;;;14.70;100.00;101188.78;4962311;28;45274;-77
2022/10/30 07:20:54;;;;;;;;;17.67;16.67;;;;;14.83;100.00;101201.53;4962577;28;45509;-76
2022/10/30 07:23:20;;;;;;;;;16.00;16.00;;;;;14.82;100.00;101188.34;4960543;28;46439;-77
2022/10/30 07:25:45;;;;;;;;;16.00;16.00;;;;;14.81;100.00;101184.81;4962025;28;45997;-76
2022/10/30 07:28:10;;;;;;;;;32.00;29.33;;;;;14.86;100.00;101197.63;4961875;28;45232;-77
2022/10/30 07:30:36;;;;;;;;;21.00;19.67;;;;;14.93;100.00;101189.69;4961767;28;46014;-77
2022/10/30 07:33:04;;;;;;;;;23.67;21.33;;;;;15.01;100.00;101201.06;4962304;28;45548;-78
2022/10/30 07:35:31;;;;;;;;;18.00;15.00;;;;;14.99;100.00;101192.41;4961549;28;45362;-78
2022/10/30 07:38:09;;;;;;;;;15.67;15.33;;;;;15.12;100.00;101194.34;4961186;28;45228;-79
2022/10/30 07:40:35;;;;;;;;;16.67;15.00;;;;;15.18;100.00;101192.78;4962066;28;45397;-77
2022/10/30 07:43:02;;;;;;;;;14.67;13.67;;;;;15.17;100.00;101184.94;4961351;28;45576;-79
2022/10/30 07:45:28;;;;;;;;;18.67;17.33;;;;;15.24;100.00;101189.28;4961662;28;45760;-79
2022/10/30 07:47:53;;;;;;;;;16.33;16.33;;;;;15.35;100.00;101200.50;4961551;28;45443;-79
2022/10/30 07:50:19;;;;;;;;;17.67;16.33;;;;;15.40;100.00;101190.88;4959973;28;45385;-80
2022/10/30 07:52:44;;;;;;;;;16.00;16.00;;;;;15.44;100.00;101172.53;4960136;28;46030;-79
2022/10/30 07:55:09;;;;;;;;;18.33;18.33;;;;;15.42;100.00;101155.84;4960123;28;47517;-80
2022/10/30 07:57:36;;;;;;;;;17.67;16.67;;;;;15.56;100.00;101182.72;4960729;28;45326;-79
2022/10/30 08:00:06;;;;;;;;;21.67;18.33;;;;;15.64;100.00;101185.22;4964215;28;45361;-79
2022/10/30 08:02:32;;;;;;;;;18.67;17.67;;;;;15.70;100.00;101197.00;4931326;28;46026;-79
2022/10/30 08:04:57;;;;;;;;;19.67;17.33;;;;;15.72;100.00;101198.50;4961081;28;47865;-78
2022/10/30 08:07:23;;;;;;;;;17.33;17.00;;;;;15.82;100.00;101197.28;4961138;28;45331;-78
2022/10/30 08:09:48;;;;;;;;;15.67;14.00;;;;;15.86;100.00;101193.19;4943860;28;45390;-78
2022/10/30 08:12:14;;;;;;;;;14.67;14.33;;;;;15.90;100.00;101189.09;4961401;28;45372;-77
2022/10/30 08:14:39;;;;;;;;;16.67;16.00;;;;;15.97;100.00;101194.50;4961126;28;45307;-78
2022/10/30 08:17:06;;;;;;;;;17.67;17.00;;;;;16.08;100.00;101201.16;4943532;28;45682;-78
2022/10/30 08:19:32;;;;;;;;;17.33;17.33;;;;;16.15;100.00;101191.28;4961374;28;45391;-78
2022/10/30 08:21:57;;;;;;;;;15.67;14.00;;;;;16.19;100.00;101192.53;4960447;28;45159;-79
2022/10/30 08:24:22;;;;;;;;;16.00;16.00;;;;;16.31;100.00;101194.66;4961117;28;45413;-79
2022/10/30 08:26:51;;;;;;;;;15.67;14.33;;;;;16.28;100.00;101188.66;4942842;28;57198;-79
2022/10/30 08:29:16;;;;;;;;;15.00;14.00;;;;;16.40;100.00;101202.28;4961166;28;45326;-79
2022/10/30 08:31:41;;;;;;;;;16.00;15.00;;;;;16.46;100.00;101202.53;4959905;28;45294;-78
2022/10/30 08:34:08;;;;;;;;;13.33;13.33;;;;;16.57;100.00;101215.34;4955345;28;58799;-78
2022/10/30 08:36:33;;;;;;;;;14.00;14.00;;;;;16.70;100.00;101214.53;4942748;28;45320;-79
2022/10/30 08:38:59;;;;;;;;;15.00;14.67;;;;;16.71;100.00;101216.22;4960537;28;45516;-79
2022/10/30 08:41:24;;;;;;;;;11.67;11.33;;;;;16.78;100.00;101219.72;4959622;28;45906;-78
2022/10/30 08:43:49;;;;;;;;;12.67;12.67;;;;;16.91;100.00;101237.69;4960543;28;47930;-78
2022/10/30 08:46:15;;;;;;;;;11.67;11.67;;;;;17.03;100.00;101242.47;4963621;28;45398;-78
2022/10/30 08:48:40;;;;;;;;;8.67;8.33;;;;;17.04;100.00;101226.13;4959464;28;45263;-78
2022/10/30 08:51:06;;;;;;;;;10.33;9.00;;;;;17.14;100.00;101235.69;4960191;28;45568;-78
2022/10/30 08:53:31;;;;;;;;;15.67;13.00;;;;;17.22;100.00;101237.34;4951548;28;48083;-78
2022/10/30 08:55:57;;;;;;;;;12.00;11.00;;;;;17.25;100.00;101234.25;4943122;28;45291;-78
2022/10/30 08:58:22;;;;;;;;;12.00;11.00;;;;;17.26;100.00;101225.97;4943152;28;45385;-80
2022/10/30 09:00:47;;;;;;;;;13.00;11.33;;;;;17.42;100.00;101237.34;4960517;28;45555;-80
2022/10/30 09:03:16;;;;;;;;;13.33;12.00;;;;;17.46;100.00;101221.63;4960227;28;45219;-80
2022/10/30 09:12:40;;;;;;;;;9.33;9.33;;;;;17.44;98.74;101194.97;4875803;29;45719;-80
2022/10/30 09:15:06;;;;;;;;;12.33;12.00;;;;;17.77;97.39;101228.16;4894348;29;45361;-82
2022/10/30 09:17:32;;;;;;;;;13.33;11.33;;;;;17.71;96.89;101226.31;4897119;28;45475;-81
2022/10/30 09:19:57;;;;;;;;;14.33;12.67;;;;;17.86;97.27;101242.19;4908390;28;45332;-82
2022/10/30 09:22:23;;;;;;;;;11.33;11.33;;;;;17.91;97.61;101247.78;4920821;28;45343;-82
2022/10/30 09:24:48;;;;;;;;;12.33;12.33;;;;;17.87;98.33;101220.47;4919130;28;45421;-79
2022/10/30 09:27:14;;;;;;;;;13.67;13.00;;;;;17.95;98.21;101240.94;4923829;28;45598;-80
2022/10/30 09:29:39;;;;;;;;;13.33;13.33;;;;;18.03;97.11;101238.03;4928158;28;46439;-80
2022/10/30 09:32:09;;;;;;;;;13.00;11.33;;;;;17.99;96.57;101219.84;4920033;28;45396;-80
2022/10/30 09:34:35;;;;;;;;;12.00;12.00;;;;;18.11;95.86;101241.56;4919602;28;45560;-80
2022/10/30 09:37:00;;;;;;;;;10.67;10.67;;;;;18.04;96.63;101234.31;4953682;28;45496;-80
2022/10/30 09:39:28;;;;;;;;;14.00;13.00;;;;;18.21;96.93;101254.53;4957951;28;45225;-79
2022/10/30 09:42:04;;;;;;;;;11.00;10.33;;;;;18.24;95.80;101254.13;4953262;28;47142;-79
2022/10/30 09:44:36;;;;;;;;;14.33;13.33;;;;;18.29;96.22;101252.44;4949284;28;47522;-79
2022/10/30 09:47:15;;;;;;;;;14.67;12.67;;;;;18.32;94.70;101259.28;4941796;28;46162;-79
2022/10/30 09:49:59;;;;;;;;;13.00;12.33;;;;;18.34;94.42;101261.72;4965378;28;45309;-78
2022/10/30 09:52:37;;;;;;;;;12.67;12.67;;;;;18.39;94.15;101251.16;4963857;28;45311;-78
2022/10/30 09:55:14;;;;;;;;;14.33;13.00;;;;;18.44;94.74;101258.59;4960225;28;45242;-78
2022/10/30 09:57:39;;;;;;;;;12.67;12.33;;;;;18.44;92.39;101259.44;4965218;28;45354;-78
2022/10/30 10:00:12;;;;;;;;;12.67;12.00;;;;;18.47;92.60;101255.47;4948080;28;45593;-79
2022/10/30 10:03:03;;;;;;;;;14.00;11.67;;;;;18.42;92.15;101256.13;4960207;28;45410;-79
2022/10/30 10:05:47;;;;;;;;;11.67;10.67;;;;;18.50;92.79;101263.94;4964426;28;47836;-81
2022/10/30 10:08:17;;;;;;;;;13.33;12.67;;;;;18.52;92.24;101267.25;4968682;28;45407;-79
2022/10/30 10:10:45;;;;;;;;;13.00;12.00;;;;;18.52;91.20;101264.56;4965562;28;45286;-79
2022/10/30 10:13:23;;;;;;;;;11.00;9.00;;;;;18.61;91.07;101264.28;4963928;28;45415;-79
2022/10/30 10:15:57;;;;;;;;;13.00;12.00;;;;;18.64;90.02;101259.31;4969465;28;45397;-79
2022/10/30 10:18:38;;;;;;;;;14.00;12.00;;;;;18.61;89.81;101250.81;4970103;28;45477;-79
2022/10/30 10:21:12;;;;;;;;;13.00;12.00;;;;;18.86;89.91;101266.22;4966419;28;45262;-78
2022/10/30 10:23:47;;;;;;;;;12.33;11.33;;;;;18.95;88.75;101277.56;4963737;28;45358;-78
2022/10/30 10:26:26;;;;;;;;;13.67;12.67;;;;;19.00;88.66;101265.09;4952834;28;45183;-78
2022/10/30 10:28:58;;;;;;;;;14.33;13.00;;;;;19.11;89.22;101276.22;4960741;28;45413;-77
2022/10/30 10:31:39;;;;;;;;;16.00;13.00;;;;;19.13;88.42;101258.00;4964387;28;45456;-78
2022/10/30 10:34:34;;;;;;;;;14.67;11.67;;;;;19.27;87.12;101262.22;4949784;28;46059;-79
2022/10/30 10:37:15;;;;;;;;;12.67;12.00;;;;;19.36;85.48;101261.97;4963446;28;47699;-78
2022/10/30 10:39:55;;;;;;;;;13.67;11.00;;;;;19.40;85.91;101245.09;4961766;28;45360;-78
2022/10/30 10:42:33;;;;;;;;;12.00;12.00;;;;;19.48;86.33;101245.88;4961510;28;45220;-78
2022/10/30 10:45:36;;;;;;;;;12.00;10.67;;;;;19.57;86.84;101249.13;4962393;28;46023;-78
2022/10/30 10:48:04;;;;;;;;;13.00;12.67;;;;;19.62;84.93;101252.78;4963923;28;45211;-78
2022/10/30 10:50:46;;;;;;;;;12.33;12.33;;;;;19.68;85.42;101256.47;4966048;28;45322;-77
2022/10/30 10:53:21;;;;;;;;;12.67;12.67;;;;;19.71;84.52;101244.41;4965943;28;45291;-79
2022/10/30 10:55:51;;;;;;;;;11.33;11.00;;;;;19.70;84.72;101243.59;4967078;28;45304;-77
2022/10/30 10:58:31;;;;;;;;;10.33;10.33;;;;;19.77;84.40;101268.63;4964240;28;46006;-77
2022/10/30 11:00:58;;;;;;;;;13.33;12.33;;;;;19.80;83.38;101272.72;4949353;28;45445;-77
2022/10/30 11:03:45;;;;;;;;;15.00;11.67;;;;;19.87;83.00;101281.56;4945588;28;45275;-78
2022/10/30 11:06:25;;;;;;;;;13.00;12.67;;;;;19.79;82.24;101268.38;4950098;28;46354;-78
2022/10/30 11:08:52;;;;;;;;;12.00;11.00;;;;;19.80;81.33;101272.72;4961169;28;45206;-79
2022/10/30 11:11:17;;;;;;;;;12.33;12.00;;;;;19.83;81.60;101282.25;4964556;28;45473;-80
2022/10/30 11:13:44;;;;;;;;;13.67;12.33;;;;;19.86;81.22;101279.94;4945510;28;45331;-77
2022/10/30 11:16:23;;;;;;;;;12.33;11.67;;;;;19.93;82.04;101280.69;4962216;28;45429;-80
2022/10/30 11:18:54;;;;;;;;;14.00;12.00;;;;;19.99;80.32;101286.25;4962023;28;45465;-78